Time;durP1;ratioP1;P1;durP2;ratioP2;P2;SDS_P1;SDS_P2;PMS_P1;PMS_P2;Temp;Humidity;BMP_temperature;BMP_pressure;BME280_temperature;BME280_humidity;BME280_pressure;Samples;Min_cycle;Max_cycle;Signal;HPM_P1;HPM_P2
2022/05/20 00:01:49;;;;;;;1.92;1.80;;;;;;;5.78;73.19;98869.16;6154232;23;20029;-80
2022/05/20 00:04:15;;;;;;;5.88;1.83;;;;;;;5.79;73.06;98860.22;6155418;23;20024;-80
2022/05/20 00:06:41;;;;;;;1.63;1.52;;;;;;;5.78;73.06;98863.84;6153804;23;20018;-80
2022/05/20 00:09:07;;;;;;;6.57;1.48;;;;;;;5.86;72.54;98874.78;6129776;23;20029;-80
2022/05/20 00:11:34;;;;;;;1.60;1.50;;;;;;;5.90;72.42;98873.59;6129505;23;20354;-80
2022/05/20 00:14:01;;;;;;;2.53;1.48;;;;;;;5.92;71.74;98882.34;6129624;23;20028;-80
2022/05/20 00:16:29;;;;;;;7.93;1.58;;;;;;;5.62;72.03;98831.38;6154071;23;20025;-80
2022/05/20 00:18:55;;;;;;;2.17;1.40;;;;;;;5.81;72.29;98884.84;6130035;23;20028;-79
2022/05/20 00:21:21;;;;;;;1.60;1.42;;;;;;;5.78;72.43;98877.94;6105675;23;20021;-79
2022/05/20 00:23:47;;;;;;;1.60;1.50;;;;;;;5.83;71.65;98896.22;6155509;23;20417;-80
2022/05/20 00:26:13;;;;;;;1.75;1.58;;;;;;;5.85;72.15;98889.00;6154471;23;20017;-81
2022/05/20 00:28:39;;;;;;;1.67;1.58;;;;;;;5.91;71.66;98891.25;6157265;23;20017;-80
2022/05/20 00:31:09;;;;;;;1.58;1.48;;;;;;;5.86;71.61;98888.03;6163142;23;20435;-81
2022/05/20 00:33:37;;;;;;;1.60;1.50;;;;;;;5.87;71.87;98892.41;6161368;23;20017;-81
2022/05/20 00:36:04;;;;;;;1.60;1.50;;;;;;;5.77;71.59;98878.91;6133135;23;20021;-81
2022/05/20 00:38:31;;;;;;;1.40;1.30;;;;;;;5.80;71.59;98894.63;6131990;23;20025;-79
2022/05/20 00:40:58;;;;;;;1.70;1.60;;;;;;;5.60;71.75;98876.53;6157277;23;20021;-80
2022/05/20 00:43:29;;;;;;;2.00;1.70;;;;;;;5.64;72.02;98911.66;6131461;23;20022;-80
2022/05/20 00:45:58;;;;;;;1.55;1.35;;;;;;;5.63;71.97;98902.84;6131584;23;20017;-80
2022/05/20 00:48:26;;;;;;;1.67;1.58;;;;;;;5.66;71.97;98915.06;6131373;23;20025;-80
2022/05/20 00:50:59;;;;;;;1.75;1.58;;;;;;;5.59;72.08;98910.16;6131378;23;20029;-81
2022/05/20 00:53:30;;;;;;;1.50;1.40;;;;;;;5.46;72.24;98906.63;6130868;23;20029;-80
2022/05/20 00:55:56;;;;;;;1.50;1.40;;;;;;;5.50;72.15;98908.13;6156997;23;20417;-80
2022/05/20 00:58:25;;;;;;;2.05;1.40;;;;;;;5.43;72.19;98906.81;6130908;23;20025;-79
2022/05/20 01:00:54;;;;;;;1.88;1.60;;;;;;;5.49;72.57;98905.56;6157200;23;20484;-81
2022/05/20 01:03:25;;;;;;;1.75;1.58;;;;;;;5.49;72.27;98913.50;6156873;23;20021;-80
2022/05/20 01:05:53;;;;;;;3.45;1.63;;;;;;;5.63;71.94;98917.91;6131299;23;20100;-81
2022/05/20 01:08:22;;;;;;;1.80;1.70;;;;;;;5.70;71.72;98924.50;6131023;23;20021;-79
2022/05/20 01:10:48;;;;;;;1.80;1.70;;;;;;;5.61;71.73;98920.69;6130745;23;20025;-80
2022/05/20 01:13:18;;;;;;;1.80;1.70;;;;;;;5.61;71.49;98920.69;6157275;23;20018;-79
2022/05/20 01:15:45;;;;;;;5.00;1.60;;;;;;;5.58;71.79;98927.03;6155442;23;20028;-79
2022/05/20 01:18:13;;;;;;;1.58;1.48;;;;;;;5.70;71.82;98919.19;6106441;23;20056;-80
2022/05/20 01:20:43;;;;;;;2.75;1.60;;;;;;;5.68;71.49;98927.28;6130849;23;20026;-79
2022/05/20 01:23:22;;;;;;;1.50;1.40;;;;;;;5.73;71.29;98921.66;6131301;23;20018;-80
2022/05/20 01:25:50;;;;;;;1.48;1.38;;;;;;;5.80;71.36;98928.25;6106575;23;20049;-80
2022/05/20 01:28:19;;;;;;;2.83;1.60;;;;;;;5.84;71.12;98927.09;6130957;23;20104;-80
2022/05/20 01:30:52;;;;;;;1.67;1.58;;;;;;;5.80;70.90;98893.78;6106696;23;20253;-79
2022/05/20 01:33:30;;;;;;;1.38;1.27;;;;;;;6.16;70.65;98927.56;6156648;23;20018;-80
2022/05/20 01:35:56;;;;;;;1.50;1.40;;;;;;;6.26;70.37;98926.00;6105993;23;20442;-80
2022/05/20 01:38:22;;;;;;;1.98;1.40;;;;;;;6.40;70.25;98933.00;6154656;23;20021;-80
2022/05/20 01:41:02;;;;;;;2.33;1.50;;;;;;;6.50;70.15;98938.50;6156568;23;20021;-80
2022/05/20 01:43:40;;;;;;;1.65;1.48;;;;;;;6.57;69.55;98934.47;6082289;23;20025;-80
2022/05/20 01:46:06;;;;;;;2.20;1.65;;;;;;;6.54;69.75;98935.56;6106127;23;20468;-81
2022/05/20 01:48:43;;;;;;;2.65;1.50;;;;;;;6.48;69.80;98919.19;6106187;23;20022;-80
2022/05/20 01:51:14;;;;;;;1.60;1.50;;;;;;;6.64;69.47;98932.25;6130748;23;20021;-80
2022/05/20 01:53:50;;;;;;;1.30;1.30;;;;;;;6.68;69.33;98939.03;6130472;23;20022;-80
2022/05/20 01:56:26;;;;;;;2.95;1.50;;;;;;;6.74;69.11;98933.31;6130569;23;20040;-80
2022/05/20 01:59:00;;;;;;;1.42;1.27;;;;;;;6.80;69.17;98930.19;6106217;23;20040;-80
2022/05/20 02:01:34;;;;;;;1.40;1.30;;;;;;;6.81;69.17;98918.63;6130265;23;20089;-81
2022/05/20 02:04:04;;;;;;;1.60;1.50;;;;;;;6.93;68.72;98939.00;6130524;23;20025;-82
2022/05/20 02:06:39;;;;;;;1.38;1.30;;;;;;;6.83;68.86;98940.59;6155938;23;20402;-82
2022/05/20 02:09:12;;;;;;;1.75;1.65;;;;;;;6.66;69.01;98930.34;6156798;23;20017;-81
2022/05/20 02:11:44;;;;;;;1.50;1.40;;;;;;;6.73;69.30;98950.19;6130781;23;20014;-80
2022/05/20 02:14:26;;;;;;;1.95;1.50;;;;;;;6.85;68.97;98945.84;6081927;23;20045;-80
2022/05/20 02:17:18;;;;;;;1.23;1.17;;;;;;;7.01;68.80;98936.63;6130427;23;20025;-79
2022/05/20 02:20:06;;;;;;;4.80;1.50;;;;;;;7.21;68.53;98945.81;6120488;23;20104;-78
2022/05/20 02:22:37;;;;;;;1.50;1.40;;;;;;;7.14;68.07;98903.84;6130351;23;20381;-82
2022/05/20 02:25:06;;;;;;;1.50;1.40;;;;;;;7.50;68.01;98940.19;6129960;23;20064;-77
2022/05/20 02:27:35;;;;;;;;;;;;;;;7.52;67.11;98936.47;6130089;23;20071;-79
2022/05/20 02:30:11;;;;;;;1.35;1.10;;;;;;;7.46;67.50;98942.22;6129943;23;19916;-81
2022/05/20 02:32:59;;;;;;;1.38;1.27;;;;;;;7.50;67.64;98937.53;6130855;23;20017;-84
2022/05/20 02:35:26;;;;;;;2.45;1.40;;;;;;;7.55;67.57;98925.56;6132298;23;20021;-87
2022/05/20 02:37:53;;;;;;;1.60;1.50;;;;;;;7.73;67.48;98928.69;6155448;23;20021;-84
2022/05/20 02:40:20;;;;;;;1.90;1.80;;;;;;;7.93;67.13;98932.50;6155242;23;20021;-80
2022/05/20 02:42:46;;;;;;;1.70;1.60;;;;;;;8.06;66.97;98945.75;6105050;23;20096;-78
2022/05/20 02:45:14;;;;;;;2.22;1.88;;;;;;;8.01;66.55;98938.13;6132007;23;20065;-80
2022/05/20 02:47:40;;;;;;;1.58;1.48;;;;;;;7.83;65.86;98933.34;6157123;23;20129;-84
2022/05/20 02:50:09;;;;;;;1.50;1.40;;;;;;;7.81;66.49;98941.41;6138494;23;20048;-91
2022/05/20 02:52:35;;;;;;;3.35;1.33;;;;;;;8.00;66.78;98947.03;6129915;23;20025;-83
2022/05/20 02:55:02;;;;;;;1.23;1.23;;;;;;;7.92;66.37;98916.66;6130248;23;20044;-79
2022/05/20 02:57:29;;;;;;;2.78;2.47;;;;;;;8.40;69.41;98954.69;6130057;23;20045;-81
2022/05/20 03:05:24;;;;;;;1.35;1.35;;;;;;;9.11;65.07;98949.13;6129946;23;20017;-82
2022/05/20 03:07:50;;;;;;;1.42;1.33;;;;;;;9.13;64.45;98948.03;6081310;23;20021;-79
2022/05/20 03:10:16;;;;;;;2.45;1.20;;;;;;;9.18;64.10;98945.84;6129172;23;20017;-87
2022/05/20 03:12:42;;;;;;;4.20;1.30;;;;;;;9.33;64.37;98948.25;6129657;23;20156;-84
2022/05/20 03:15:12;;;;;;;1.50;1.40;;;;;;;9.25;63.94;98946.19;6104656;23;20125;-82
2022/05/20 03:17:38;;;;;;;1.50;1.40;;;;;;;9.27;63.40;98957.59;6152618;23;20020;-81
2022/05/20 03:20:06;;;;;;;1.10;1.10;;;;;;;9.11;63.31;98959.81;6129956;23;20076;-81
2022/05/20 03:22:33;;;;;;;1.08;1.08;;;;;;;8.95;63.03;98952.16;6129359;23;20104;-81
2022/05/20 03:24:59;;;;;;;3.50;1.20;;;;;;;9.03;63.89;98956.88;6129642;23;20022;-81
2022/05/20 03:27:25;;;;;;;4.63;1.38;;;;;;;9.32;63.84;98963.38;6104350;23;20028;-81
2022/05/20 03:29:51;;;;;;;1.13;1.02;;;;;;;9.20;62.93;98969.72;6129177;23;20024;-80
2022/05/20 03:32:17;;;;;;;1.35;1.25;;;;;;;9.26;62.81;98963.06;6129475;23;20172;-84
2022/05/20 03:34:49;;;;;;;1.48;1.20;;;;;;;9.26;63.03;98961.25;6133271;23;20020;-88
2022/05/20 03:37:16;;;;;;;3.33;1.30;;;;;;;9.43;63.35;98963.38;6130540;23;20353;-86
2022/05/20 03:39:42;;;;;;;2.65;1.50;;;;;;;9.57;62.81;98951.56;6107965;23;20017;-86
2022/05/20 03:42:08;;;;;;;3.60;1.30;;;;;;;9.59;62.69;98932.75;6112561;23;20393;-80
2022/05/20 03:44:34;;;;;;;1.20;1.20;;;;;;;9.64;61.81;98963.44;6129134;23;20025;-81
2022/05/20 03:47:01;;;;;;;1.30;1.20;;;;;;;9.63;61.94;98955.56;6154832;23;20477;-86
2022/05/20 03:49:28;;;;;;;1.50;1.13;;;;;;;9.71;61.22;98961.13;6153223;23;20461;-79
2022/05/20 03:51:56;;;;;;;2.00;1.48;;;;;;;9.54;61.10;98965.16;6154908;23;20024;-79
2022/05/20 03:54:25;;;;;;;1.20;1.10;;;;;;;9.56;61.55;98967.72;6156025;23;20084;-79
2022/05/20 03:56:51;;;;;;;;;;;;;;;9.77;61.79;98960.59;6156223;23;20017;-80
2022/05/20 03:59:17;;;;;;;1.20;1.20;;;;;;;9.93;60.93;98957.53;6129135;23;20226;-80
2022/05/20 04:01:58;;;;;;;3.03;1.40;;;;;;;10.00;61.05;98960.50;6128922;23;20025;-83
2022/05/20 04:04:36;;;;;;;1.25;1.15;;;;;;;9.94;60.17;98965.41;6131081;23;20073;-77
2022/05/20 04:07:23;;;;;;;1.83;1.30;;;;;;;9.83;60.54;98962.78;6156033;23;20394;-82
2022/05/20 04:09:49;;;;;;;2.08;1.73;;;;;;;9.92;60.59;98951.31;6131629;23;20060;-81
2022/05/20 04:12:25;;;;;;;1.40;1.30;;;;;;;10.03;60.56;98947.75;6131740;23;20105;-79
2022/05/20 04:14:52;;;;;;;1.30;1.20;;;;;;;10.33;60.20;98947.00;6131265;23;20018;-80
2022/05/20 04:17:19;;;;;;;1.90;1.35;;;;;;;10.21;59.23;98940.00;6130128;23;20017;-82
2022/05/20 04:19:45;;;;;;;1.17;1.17;;;;;;;10.30;58.61;98938.41;6155428;23;20519;-83
2022/05/20 04:22:14;;;;;;;1.48;1.38;;;;;;;10.24;58.54;98933.56;6130521;23;20331;-79
2022/05/20 04:24:40;;;;;;;1.63;1.10;;;;;;;10.51;58.81;98943.75;6132156;23;20026;-80
2022/05/20 04:27:06;;;;;;;1.13;1.13;;;;;;;10.65;57.91;98951.44;6130369;23;20021;-78
2022/05/20 04:29:34;;;;;;;1.10;1.10;;;;;;;10.90;57.48;98945.59;6130787;23;20024;-80
2022/05/20 04:32:00;;;;;;;2.50;1.50;;;;;;;11.03;56.67;98942.72;6106735;23;20501;-79
2022/05/20 04:34:26;;;;;;;3.95;1.48;;;;;;;11.15;56.86;98954.16;6156460;23;20249;-79
2022/05/20 04:36:53;;;;;;;2.55;1.30;;;;;;;10.89;56.99;98957.28;6106529;23;20172;-79
2022/05/20 04:39:19;;;;;;;3.10;1.30;;;;;;;10.97;57.61;98942.41;6156267;23;20060;-77
2022/05/20 04:47:22;;;;;;;1.20;1.20;;;;;;;11.09;56.17;98942.16;6156261;23;20160;-77
2022/05/20 04:49:48;;;;;;;1.70;1.45;;;;;;;11.24;56.47;98939.94;6155204;23;20025;-80
2022/05/20 04:52:14;;;;;;;2.92;1.50;;;;;;;11.46;56.33;98938.03;6156655;23;20405;-81
2022/05/20 04:54:50;;;;;;;1.30;1.30;;;;;;;11.47;56.14;98940.59;6155090;23;20073;-86
2022/05/20 04:57:30;;;;;;;1.27;1.17;;;;;;;11.54;54.77;98941.69;6130675;23;20096;-81
2022/05/20 05:00:12;;;;;;;1.90;1.30;;;;;;;11.70;55.49;98941.19;6130887;23;20017;-82
2022/05/20 05:02:39;;;;;;;1.63;1.42;;;;;;;12.07;55.86;98935.13;6157620;23;20025;-82
2022/05/20 05:05:08;;;;;;;2.45;1.30;;;;;;;12.35;53.78;98936.94;6130893;23;20021;-79
2022/05/20 05:07:42;;;;;;;1.58;1.40;;;;;;;12.60;54.55;98945.38;6106401;23;20014;-87
2022/05/20 05:10:10;;;;;;;1.30;1.20;;;;;;;12.86;53.22;98956.25;6107009;23;20018;-86
2022/05/20 05:12:37;;;;;;;1.42;1.10;;;;;;;13.12;52.70;98945.72;6105954;23;20024;-87
2022/05/20 05:15:05;;;;;;;1.88;1.25;;;;;;;13.21;50.83;98936.78;6106712;23;20029;-88
2022/05/20 05:20:20;;;;;;;1.30;1.10;;;;;;;12.76;49.68;98952.78;6130748;23;20025;-79
2022/05/20 05:22:48;;;;;;;3.53;1.48;;;;;;;12.56;51.02;98954.66;6130554;23;20338;-78
2022/05/20 05:25:14;;;;;;;3.13;1.20;;;;;;;12.85;51.32;98959.94;6106957;23;20021;-81
2022/05/20 05:27:40;;;;;;;0.95;0.95;;;;;;;12.93;49.88;98948.47;6130608;23;20053;-79
2022/05/20 05:30:08;;;;;;;0.80;0.80;;;;;;;13.25;49.92;98957.00;6130443;23;20068;-79
2022/05/20 05:32:35;;;;;;;3.13;0.90;;;;;;;13.55;49.20;98960.34;6130286;23;20013;-79
2022/05/20 05:35:03;;;;;;;5.05;1.00;;;;;;;13.88;48.71;98949.94;6105960;23;20049;-79
2022/05/20 05:37:33;;;;;;;2.35;0.90;;;;;;;13.97;48.02;98951.72;6131103;23;20092;-79
2022/05/20 05:39:59;;;;;;;8.05;1.20;;;;;;;14.19;47.74;98951.22;6130847;23;20018;-78
2022/05/20 05:42:25;;;;;;;1.77;0.90;;;;;;;14.39;46.51;98956.44;6130655;23;20029;-79
2022/05/20 05:44:55;;;;;;;0.90;0.90;;;;;;;13.97;45.83;98952.56;6130515;23;20080;-79
2022/05/20 05:47:22;;;;;;;1.70;1.10;;;;;;;14.04;46.97;98947.41;6130482;23;20465;-79
2022/05/20 05:49:48;;;;;;;1.08;1.08;;;;;;;14.02;47.20;98935.97;6130408;23;20025;-78
2022/05/20 05:52:14;;;;;;;1.60;1.00;;;;;;;13.99;46.80;98950.56;6130604;23;20521;-79
2022/05/20 05:54:40;;;;;;;0.93;0.93;;;;;;;13.60;47.89;98944.63;6156845;23;20099;-79
2022/05/20 05:57:06;;;;;;;1.20;1.10;;;;;;;13.58;47.87;98952.00;6156232;23;20462;-78
2022/05/20 05:59:33;;;;;;;3.38;1.30;;;;;;;13.34;48.72;98956.06;6105774;23;20017;-79
2022/05/20 06:02:00;;;;;;;5.28;1.27;;;;;;;13.77;48.41;98946.50;6081694;23;20400;-80
2022/05/20 06:04:27;;;;;;;2.45;1.23;;;;;;;14.09;46.47;98937.03;6154623;23;20020;-80
2022/05/20 06:06:53;;;;;;;1.92;1.73;;;;;;;14.60;46.26;98943.50;6130254;23;20024;-79
2022/05/20 06:09:20;;;;;;;3.63;1.00;;;;;;;14.63;45.51;98942.31;6105937;23;20310;-78
2022/05/20 06:11:46;;;;;;;0.98;0.95;;;;;;;14.84;44.73;98939.28;6130260;23;20084;-78
2022/05/20 06:14:13;;;;;;;1.50;1.10;;;;;;;14.88;44.64;98929.88;6156155;23;20017;-79
2022/05/20 06:16:39;;;;;;;1.30;1.20;;;;;;;14.58;45.39;98923.97;6154690;23;20404;-79
2022/05/20 06:19:05;;;;;;;1.20;1.10;;;;;;;14.72;45.02;98942.22;6130803;23;20097;-81
2022/05/20 06:21:31;;;;;;;2.95;1.00;;;;;;;14.48;44.71;98934.81;6134580;23;20017;-80
2022/05/20 06:24:00;;;;;;;1.33;1.25;;;;;;;14.63;45.58;98932.44;6147439;23;20025;-80
2022/05/20 06:26:27;;;;;;;;;;;;;;;14.50;44.40;98935.53;6149413;23;20017;-79
2022/05/20 06:28:53;;;;;;;1.30;1.17;;;;;;;14.24;44.55;98927.41;6173481;23;19927;-82
2022/05/20 06:31:19;;;;;;;1.20;1.10;;;;;;;14.19;44.68;98918.97;6148141;23;20425;-81
2022/05/20 06:33:45;;;;;;;1.40;1.30;;;;;;;14.20;45.50;98915.28;6165775;23;20017;-81
2022/05/20 06:41:41;;;;;;;2.08;1.23;;;;;;;15.61;43.29;98916.69;6130685;23;20017;-79
2022/05/20 06:44:07;;;;;;;1.20;1.10;;;;;;;15.70;42.83;98894.16;6129871;23;20087;-81
2022/05/20 06:46:33;;;;;;;5.32;1.20;;;;;;;15.97;42.28;98908.34;6157120;23;20087;-80
2022/05/20 06:49:00;;;;;;;1.65;1.30;;;;;;;16.08;41.82;98897.22;6156705;23;20430;-79
2022/05/20 06:51:28;;;;;;;6.65;1.20;;;;;;;16.19;42.28;98910.34;6155065;23;20071;-81
2022/05/20 06:53:56;;;;;;;1.65;1.02;;;;;;;15.44;42.14;98896.09;6129475;23;20025;-77
2022/05/20 06:56:24;;;;;;;1.45;1.23;;;;;;;15.74;42.00;98911.69;6105473;23;20076;-82
2022/05/20 06:58:51;;;;;;;2.22;0.85;;;;;;;15.76;42.31;98914.22;6129833;23;20389;-86
2022/05/20 07:01:17;;;;;;;2.25;1.40;;;;;;;15.81;41.26;98905.63;6130171;23;20022;-78
2022/05/20 07:03:44;;;;;;;14.00;2.00;;;;;;;15.71;41.86;98871.59;6155794;23;20021;-85
2022/05/20 07:06:11;;;;;;;5.97;1.08;;;;;;;15.78;41.05;98907.63;6103997;23;20301;-81
2022/05/20 07:08:38;;;;;;;6.72;1.20;;;;;;;15.82;42.12;98901.91;6129560;23;20353;-83
2022/05/20 07:11:05;;;;;;;2.30;1.00;;;;;;;16.20;41.59;98895.00;6104955;23;20021;-84
2022/05/20 07:13:32;;;;;;;1.92;1.27;;;;;;;16.38;41.16;98898.38;6128835;23;20348;-83
2022/05/20 07:15:59;;;;;;;4.47;1.02;;;;;;;16.79;40.57;98890.22;6129389;23;20021;-79
2022/05/20 07:18:26;;;;;;;1.95;1.10;;;;;;;16.90;40.34;98891.69;6104957;23;20045;-80
2022/05/20 07:20:53;;;;;;;2.45;1.20;;;;;;;17.35;40.03;98900.97;6104171;23;20025;-79
2022/05/20 07:23:19;;;;;;;4.30;1.50;;;;;;;17.45;38.14;98904.25;6153662;23;20093;-83
2022/05/20 07:25:45;;;;;;;3.00;1.00;;;;;;;17.52;38.63;98891.72;6105518;23;20021;-79
2022/05/20 07:28:11;;;;;;;2.97;1.20;;;;;;;17.13;37.96;98891.78;6104684;23;20100;-81
2022/05/20 07:30:37;;;;;;;1.17;1.00;;;;;;;16.70;39.48;98902.03;6129878;23;20041;-80
2022/05/20 07:33:03;;;;;;;1.95;1.20;;;;;;;17.06;39.68;98896.19;6154708;23;20389;-82
2022/05/20 07:35:29;;;;;;;1.73;1.00;;;;;;;17.23;39.46;98885.16;6128043;23;20116;-82
2022/05/20 07:37:55;;;;;;;4.07;1.13;;;;;;;17.26;39.04;98875.00;6128606;23;20021;-81
2022/05/20 07:40:22;;;;;;;4.38;1.27;;;;;;;17.46;38.80;98874.38;6154841;23;20036;-84
2022/05/20 07:42:48;;;;;;;4.07;1.40;;;;;;;17.50;38.77;98874.03;6152823;23;20072;-80
2022/05/20 07:45:15;;;;;;;1.02;1.00;;;;;;;17.33;38.45;98870.56;6129173;23;20029;-81
2022/05/20 07:47:43;;;;;;;4.80;1.15;;;;;;;17.62;39.13;98870.72;6153822;23;20028;-79
2022/05/20 07:50:10;;;;;;;3.15;1.23;;;;;;;17.76;38.01;98874.56;6103878;23;20335;-79
2022/05/20 07:55:36;;;;;;;1.20;1.10;;;;;;;17.11;37.03;98870.38;6104129;23;20029;-80
2022/05/20 07:58:05;;;;;;;8.25;1.30;;;;;;;17.30;38.58;98862.81;6104416;23;20025;-80
2022/05/20 08:00:32;;;;;;;4.60;1.27;;;;;;;17.38;38.45;98863.63;6128994;23;20357;-80
2022/05/20 08:03:01;;;;;;;5.35;1.52;;;;;;;17.48;38.39;98860.69;6104415;23;20040;-79
2022/05/20 08:05:29;;;;;;;6.65;1.30;;;;;;;17.76;37.01;98865.63;6129362;23;20096;-81
2022/05/20 08:08:01;;;;;;;8.00;1.00;;;;;;;17.87;37.02;98860.63;6154356;23;20080;-81
2022/05/20 08:10:30;;;;;;;2.58;1.27;;;;;;;17.65;37.00;98845.22;6154968;23;20244;-80
2022/05/20 08:12:59;;;;;;;2.83;1.20;;;;;;;17.75;37.54;98848.53;6128595;23;20028;-80
2022/05/20 08:15:25;;;;;;;;;;;;;;;17.94;36.37;98847.19;6129709;23;20104;-79
2022/05/20 08:17:51;;;;;;;1.33;1.10;;;;;;;18.08;36.98;98837.44;6129265;23;19919;-80
2022/05/20 08:20:23;;;;;;;2.13;1.20;;;;;;;18.27;36.32;98826.09;6129147;23;20021;-81
2022/05/20 08:22:49;;;;;;;2.72;1.30;;;;;;;18.43;36.33;98842.19;6129414;23;20017;-82
2022/05/20 08:25:16;;;;;;;1.50;1.30;;;;;;;18.63;35.79;98845.16;6129068;23;20068;-81
2022/05/20 08:27:43;;;;;;;2.55;1.10;;;;;;;18.73;35.53;98846.78;6104409;23;20017;-82
2022/05/20 08:30:12;;;;;;;4.28;1.05;;;;;;;18.85;34.89;98850.72;6129485;23;20021;-81
2022/05/20 08:32:39;;;;;;;0.93;0.90;;;;;;;18.75;34.89;98840.16;6104525;23;20022;-82
2022/05/20 08:35:05;;;;;;;1.48;1.10;;;;;;;18.47;34.93;98845.34;6128777;23;20021;-79
2022/05/20 08:37:33;;;;;;;4.50;1.88;;;;;;;18.45;35.28;98839.28;6129367;23;20017;-79
2022/05/20 08:40:00;;;;;;;1.83;1.40;;;;;;;18.41;35.95;98848.78;6129149;23;20072;-80
2022/05/20 08:42:30;;;;;;;3.70;1.00;;;;;;;18.32;35.35;98845.34;6128699;23;20357;-80
2022/05/20 08:44:58;;;;;;;3.03;1.10;;;;;;;17.98;36.12;98835.00;6104496;23;20084;-79
2022/05/20 08:47:43;;;;;;;7.03;1.40;;;;;;;18.20;36.38;98827.84;6129411;23;20025;-80
2022/05/20 08:50:22;;;;;;;2.00;1.70;;;;;;;18.16;35.97;98830.09;6106683;23;20075;-80
2022/05/20 08:52:50;;;;;;;2.78;1.27;;;;;;;18.13;36.61;98830.47;6106430;23;20091;-80
2022/05/20 08:55:16;;;;;;;2.15;1.27;;;;;;;18.77;35.26;98835.41;6101319;23;20017;-80
2022/05/20 08:57:53;;;;;;;2.00;0.98;;;;;;;19.34;34.60;98828.38;6100866;23;20484;-80
2022/05/20 09:00:20;;;;;;;2.75;1.20;;;;;;;19.57;33.50;98822.78;6077561;23;20060;-80
2022/05/20 09:02:45;;;;;;;2.15;1.08;;;;;;;19.73;33.35;98822.56;6101321;23;20149;-81
2022/05/20 09:05:34;;;;;;;2.58;1.00;;;;;;;19.52;32.74;98827.94;6126984;23;20049;-80
2022/05/20 09:08:07;;;;;;;3.35;1.08;;;;;;;19.61;33.21;98832.22;6125713;23;20022;-79
2022/05/20 09:10:42;;;;;;;1.67;1.30;;;;;;;19.56;32.53;98831.97;6101289;23;20412;-80
2022/05/20 09:13:19;;;;;;;3.00;0.90;;;;;;;19.34;33.12;98833.81;6101064;23;20029;-80
2022/05/20 09:16:04;;;;;;;3.88;1.10;;;;;;;19.42;33.39;98820.97;6077409;23;20476;-81
2022/05/20 09:18:41;;;;;;;1.67;0.88;;;;;;;19.56;33.26;98815.69;6100814;23;20054;-78
2022/05/20 09:21:32;;;;;;;8.55;1.25;;;;;;;19.08;33.03;98813.50;6101330;23;20453;-80
2022/05/20 09:24:04;;;;;;;1.85;1.00;;;;;;;18.75;34.27;98806.81;6101409;23;20077;-80
2022/05/20 09:26:45;;;;;;;1.08;0.98;;;;;;;18.92;34.85;98798.31;6101553;23;20029;-81
2022/05/20 09:29:31;;;;;;;10.18;1.27;;;;;;;19.53;33.89;98816.91;6077409;23;20291;-78
2022/05/20 09:32:03;;;;;;;5.93;1.10;;;;;;;19.58;32.54;98811.75;6100532;23;20113;-81
2022/05/20 09:34:39;;;;;;;2.58;1.25;;;;;;;19.54;31.73;98805.03;6100774;23;20022;-80
2022/05/20 09:37:18;;;;;;;6.15;1.05;;;;;;;19.92;31.77;98818.34;6101100;23;20026;-80
2022/05/20 09:39:49;;;;;;;1.02;0.90;;;;;;;19.99;31.54;98810.25;6101010;23;20028;-80
2022/05/20 09:42:27;;;;;;;1.73;1.05;;;;;;;19.87;31.86;98807.25;6077114;23;20022;-80
2022/05/20 09:45:19;;;;;;;1.35;1.00;;;;;;;19.25;32.54;98818.69;6101106;23;20365;-79
2022/05/20 09:47:53;;;;;;;8.32;1.05;;;;;;;19.24;32.55;98806.16;6077748;23;20018;-79
2022/05/20 09:50:34;;;;;;;1.88;1.13;;;;;;;19.28;32.76;98831.84;6101903;23;20018;-81
2022/05/20 09:53:04;;;;;;;2.53;1.27;;;;;;;19.36;32.61;98815.47;6129612;23;20260;-81
2022/05/20 09:55:49;;;;;;;6.47;1.00;;;;;;;19.47;32.61;98806.81;6130745;23;20013;-80
2022/05/20 09:58:27;;;;;;;3.65;1.17;;;;;;;19.40;32.19;98805.91;6108487;23;20342;-82
2022/05/20 10:01:11;;;;;;;5.22;1.10;;;;;;;19.08;32.21;98794.53;6107198;23;20036;-81
2022/05/20 10:03:44;;;;;;;1.00;1.00;;;;;;;18.94;32.77;98789.97;6081997;23;20113;-80
2022/05/20 10:06:41;;;;;;;1.98;1.20;;;;;;;19.13;32.75;98775.81;6105996;23;20084;-79
2022/05/20 10:09:48;;;;;;;5.13;1.27;;;;;;;19.23;32.90;98775.53;6106409;23;20072;-80
2022/05/20 10:12:33;;;;;;;3.60;1.17;;;;;;;19.04;32.23;98792.41;6134191;23;20025;-81
2022/05/20 10:15:23;;;;;;;1.52;1.40;;;;;;;18.89;32.21;98781.59;6135768;23;20028;-80
2022/05/20 10:17:57;;;;;;;5.97;1.13;;;;;;;19.01;32.13;98762.97;6164319;23;20045;-82
2022/05/20 10:20:55;;;;;;;4.47;1.50;;;;;;;19.36;32.08;98769.41;6109194;23;20417;-81
2022/05/20 10:23:48;;;;;;;1.48;1.30;;;;;;;19.37;30.87;98757.53;6129202;23;20022;-80
2022/05/20 10:26:31;;;;;;;3.75;1.38;;;;;;;18.94;31.54;98754.78;6104888;23;20017;-80
2022/05/20 10:34:57;;;;;;;4.28;1.88;;;;;;;19.09;32.10;98744.72;6128530;23;20018;-81
2022/05/20 10:37:42;;;;;;;2.40;1.50;;;;;;;19.06;31.65;98739.69;6128953;23;20017;-81
2022/05/20 10:40:37;;;;;;;6.82;2.15;;;;;;;19.69;32.44;98745.34;6104184;23;20075;-82
2022/05/20 10:50:05;;;;;;;9.20;6.32;;;;;;;19.86;32.06;98741.31;6129398;23;20635;-81
2022/05/20 10:53:10;;;;;;;13.82;8.63;;;;;;;19.86;32.02;98740.47;6055483;23;20029;-81
2022/05/20 10:55:45;;;;;;;12.20;10.02;;;;;;;19.86;32.17;98718.78;6075797;23;20029;-81
2022/05/20 10:58:28;;;;;;;28.88;16.52;;;;;;;20.17;32.42;98718.34;6075915;23;20473;-80
2022/05/20 11:00:55;;;;;;;21.45;12.50;;;;;;;20.20;32.03;98715.25;6099799;23;20014;-82
2022/05/20 11:03:55;;;;;;;16.10;11.50;;;;;;;19.85;32.80;98717.91;6075233;23;20018;-81
2022/05/20 11:06:51;;;;;;;38.60;19.67;;;;;;;19.45;33.87;98710.50;6072393;23;20049;-81
2022/05/20 11:10:05;;;;;;;18.95;13.00;;;;;;;18.81;33.96;98700.47;6099593;23;20156;-81
2022/05/20 11:12:49;;;;;;;15.80;12.98;;;;;;;18.98;34.65;98704.59;6069496;23;20026;-82
2022/05/20 11:15:41;;;;;;;19.60;13.32;;;;;;;19.26;33.52;98698.44;6099906;23;20022;-82
2022/05/20 11:18:26;;;;;;;18.45;13.60;;;;;;;19.39;33.32;98685.00;6130859;23;20014;-80
2022/05/20 11:21:01;;;;;;;20.33;12.45;;;;;;;19.43;33.15;98680.84;6075972;23;20025;-82
2022/05/20 11:24:08;;;;;;;21.75;11.85;;;;;;;19.24;33.75;98685.06;6076268;23;20021;-81
2022/05/20 11:26:52;;;;;;;17.20;10.75;;;;;;;19.61;32.77;98686.63;5984506;23;20019;-81
2022/05/20 11:29:55;;;;;;;18.10;12.60;;;;;;;19.60;32.92;98668.72;6061388;23;20073;-81
2022/05/20 11:32:50;;;;;;;20.15;12.43;;;;;;;19.28;33.05;98655.72;6089335;23;20358;-81
2022/05/20 11:35:41;;;;;;;17.58;11.73;;;;;;;19.56;32.63;98651.16;6076846;23;20021;-81
2022/05/20 11:38:16;;;;;;;15.75;10.68;;;;;;;19.87;32.43;98645.34;6101631;23;20025;-80
2022/05/20 11:40:51;;;;;;;13.73;10.68;;;;;;;20.13;31.74;98631.09;6077398;23;20017;-80
2022/05/20 11:43:30;;;;;;;17.50;11.10;;;;;;;20.43;31.26;98638.09;6071210;23;20079;-80
2022/05/20 11:46:32;;;;;;;14.52;8.88;;;;;;;20.38;30.44;98638.69;6098731;23;20017;-83
2022/05/20 11:49:16;;;;;;;10.55;8.20;;;;;;;20.34;30.99;98634.72;6076298;23;20474;-81
2022/05/20 11:52:01;;;;;;;11.77;8.30;;;;;;;20.17;30.02;98614.41;6082926;23;20121;-84
2022/05/20 11:54:59;;;;;;;12.40;9.05;;;;;;;19.97;30.21;98628.72;6121976;23;20021;-85
2022/05/20 11:57:38;;;;;;;10.37;8.40;;;;;;;19.54;31.26;98617.16;6129920;23;20361;-83
2022/05/20 12:00:09;;;;;;;11.05;8.60;;;;;;;19.54;31.29;98617.97;6105967;23;20049;-82
2022/05/20 12:02:46;;;;;;;18.55;8.90;;;;;;;19.64;31.49;98623.94;6105281;23;20440;-82
2022/05/20 12:05:16;;;;;;;13.55;8.45;;;;;;;19.38;32.04;98618.28;6081517;23;20026;-83
2022/05/20 12:07:42;;;;;;;20.10;9.48;;;;;;;19.32;31.76;98619.06;6105034;23;20024;-77
2022/05/20 12:10:29;;;;;;;11.93;8.07;;;;;;;19.35;31.98;98613.25;6104900;23;20049;-78
2022/05/20 12:13:20;;;;;;;16.20;7.72;;;;;;;19.29;32.46;98605.91;6128657;23;20603;-81
2022/05/20 12:16:09;;;;;;;16.75;8.57;;;;;;;19.06;32.50;98601.53;6104603;23;20357;-79
2022/05/20 12:24:50;;;;;;;13.75;7.47;;;;;;;18.61;33.02;98600.03;6133064;23;20397;-82
2022/05/20 12:27:24;;;;;;;15.65;7.85;;;;;;;18.61;33.05;98600.88;6106446;23;20025;-79
2022/05/20 12:30:17;;;;;;;14.10;7.90;;;;;;;18.86;32.17;98589.72;6131663;23;20021;-78
2022/05/20 12:32:46;;;;;;;11.88;7.10;;;;;;;18.63;32.13;98549.28;6106996;23;20040;-79
2022/05/20 12:35:29;;;;;;;7.90;6.35;;;;;;;19.12;32.39;98576.41;6131041;23;20018;-78
2022/05/20 12:38:16;;;;;;;13.35;6.95;;;;;;;19.32;31.92;98573.00;6106212;23;20118;-78
2022/05/20 12:40:42;;;;;;;12.43;7.30;;;;;;;19.34;32.60;98562.81;6081594;23;20040;-77
2022/05/20 12:43:10;;;;;;;8.75;6.95;;;;;;;19.53;30.98;98562.09;6105521;23;20076;-77